Time;durP1;ratioP1;P1;durP2;ratioP2;P2;SDS_P1;SDS_P2;PMS_P1;PMS_P2;Temp;Humidity;BMP_temperature;BMP_pressure;BME280_temperature;BME280_humidity;BME280_pressure;Samples;Min_cycle;Max_cycle;Signal;HPM_P1;HPM_P2
2022/01/03 00:00:47;;;;;;;;;;;11.80;92.70;;;;;;5020379;28;19992;-73
2022/01/03 00:03:14;;;;;;;;;;;11.80;92.70;;;;;;5025288;28;20287;-73
2022/01/03 00:05:39;;;;;;;;;;;11.80;92.70;;;;;;5020126;28;20364;-73
2022/01/03 00:08:05;;;;;;;;;;;11.80;92.70;;;;;;5020171;28;19913;-73
2022/01/03 00:10:33;;;;;;;;;;;11.90;92.70;;;;;;5020029;28;20000;-73
2022/01/03 00:12:59;;;;;;;;;;;11.90;92.70;;;;;;5020322;28;19909;-73
2022/01/03 00:15:24;;;;;;;;;;;11.80;92.70;;;;;;5020236;28;19920;-73
2022/01/03 00:17:51;;;;;;;;;;;11.90;92.70;;;;;;5020155;28;19910;-73
2022/01/03 00:20:17;;;;;;;;;;;11.90;92.60;;;;;;5019601;28;19917;-73
2022/01/03 00:22:44;;;;;;;;;;;11.90;92.60;;;;;;5020003;28;20364;-73
2022/01/03 00:25:18;;;;;;;;;;;11.90;92.60;;;;;;5019491;28;19921;-73
2022/01/03 00:27:50;;;;;;;;;;;11.90;92.60;;;;;;5019943;28;19920;-73
2022/01/03 00:30:19;;;;;;;;;;;11.90;92.50;;;;;;5019830;28;20080;-73
2022/01/03 00:32:47;;;;;;;;;;;11.90;92.50;;;;;;5027703;28;19913;-73
2022/01/03 00:35:15;;;;;;;;;;;11.80;92.60;;;;;;5021294;28;19917;-73
2022/01/03 00:37:42;;;;;;;;;;;11.90;92.60;;;;;;5019782;28;19932;-73
2022/01/03 00:40:08;;;;;;;;;;;11.90;92.60;;;;;;5019368;28;19910;-73
2022/01/03 00:42:34;;;;;;;;;;;11.90;92.70;;;;;;5019631;28;19917;-73
2022/01/03 00:45:01;;;;;;;;;;;11.90;92.60;;;;;;5019385;28;19909;-73
2022/01/03 00:47:32;;;;;;;;;;;11.90;92.60;;;;;;5030895;28;19920;-73
2022/01/03 00:49:58;;;;;;;;;;;11.90;92.60;;;;;;5019040;28;19909;-73
2022/01/03 00:52:24;;;;;;;;;;;11.90;92.50;;;;;;5017990;28;19955;-73
2022/01/03 00:54:49;;;;;;;;;;;11.90;92.50;;;;;;5015212;28;19909;-73
2022/01/03 00:57:33;;;;;;;;;;;11.90;92.50;;;;;;5010531;28;19910;-73
2022/01/03 01:00:03;;;;;;;;;;;11.90;92.50;;;;;;5019165;28;19955;-73
2022/01/03 01:02:33;;;;;;;;;;;11.90;92.70;;;;;;5028091;28;19909;-73
2022/01/03 01:04:59;;;;;;;;;;;11.90;92.40;;;;;;5019055;28;19916;-73
2022/01/03 01:07:27;;;;;;;;;;;11.90;92.30;;;;;;5018923;28;20012;-73
2022/01/03 01:09:53;;;;;;;;;;;11.90;92.40;;;;;;5019105;28;20445;-73
2022/01/03 01:12:19;;;;;;;;;;;12.00;92.40;;;;;;5018995;28;20022;-73
2022/01/03 01:14:48;;;;;;;;;;;12.00;92.30;;;;;;5019072;28;19999;-73
2022/01/03 01:17:14;;;;;;;;;;;12.00;92.20;;;;;;5018804;28;21045;-73
2022/01/03 01:19:39;;;;;;;;;;;12.00;92.40;;;;;;5018997;28;20008;-73
2022/01/03 01:22:05;;;;;;;;;;;12.00;92.20;;;;;;5018573;28;19916;-73
2022/01/03 01:24:44;;;;;;;;;;;12.00;92.20;;;;;;5018677;28;19922;-73
2022/01/03 01:29:53;;;;;;;;;;;11.90;92.30;;;;;;5018672;28;19917;-73
2022/01/03 01:32:19;;;;;;;;;;;11.90;92.30;;;;;;5023821;28;20368;-73
2022/01/03 01:34:46;;;;;;;;;;;12.00;92.30;;;;;;5024603;28;19963;-73
2022/01/03 01:37:12;;;;;;;;;;;11.90;92.20;;;;;;5018686;28;19977;-73
2022/01/03 01:39:40;;;;;;;;;;;11.90;92.20;;;;;;5018526;28;20395;-73
2022/01/03 01:42:06;;;;;;;;;;;11.90;92.30;;;;;;5018396;28;19909;-73
2022/01/03 01:44:33;;;;;;;;;;;11.90;92.30;;;;;;5018573;28;19916;-73
2022/01/03 01:47:02;;;;;;;;;;;11.90;92.30;;;;;;5025922;28;19972;-73
2022/01/03 01:49:28;;;;;;;;;;;11.90;92.30;;;;;;5022743;28;19916;-73
2022/01/03 01:51:58;;;;;;;;;;;11.90;92.30;;;;;;5018589;28;20324;-73
2022/01/03 01:54:28;;;;;;;;;;;11.90;92.30;;;;;;5017308;28;19916;-73
2022/01/03 01:57:02;;;;;;;;;;;11.90;92.30;;;;;;5006641;28;19910;-73
2022/01/03 01:59:38;;;;;;;;;;;11.90;92.30;;;;;;5018156;28;20009;-73
2022/01/03 02:02:04;;;;;;;;;;;11.90;92.30;;;;;;5024173;28;19909;-73
2022/01/03 02:04:45;;;;;;;;;;;11.90;92.30;;;;;;5020028;28;19910;-73
2022/01/03 02:07:17;;;;;;;;;;;11.90;92.30;;;;;;5018059;28;19913;-73
2022/01/03 02:09:48;;;;;;;;;;;11.90;92.30;;;;;;5005677;28;19916;-73
2022/01/03 02:12:16;;;;;;;;;;;11.90;92.30;;;;;;5018002;28;19916;-73
2022/01/03 02:14:44;;;;;;;;;;;11.90;92.30;;;;;;5018166;28;19916;-73
2022/01/03 02:17:09;;;;;;;;;;;11.90;92.40;;;;;;5018103;28;19979;-73
2022/01/03 02:19:36;;;;;;;;;;;12.00;92.40;;;;;;5018025;28;19967;-73
2022/01/03 02:22:02;;;;;;;;;;;11.90;92.30;;;;;;5017804;28;19913;-73
2022/01/03 02:24:27;;;;;;;;;;;11.90;92.40;;;;;;5017788;28;19925;-73
2022/01/03 02:26:53;;;;;;;;;;;11.90;92.40;;;;;;5017749;28;19913;-73
2022/01/03 02:29:19;;;;;;;;;;;11.90;92.40;;;;;;5018095;28;19917;-73
2022/01/03 02:31:44;;;;;;;;;;;11.90;92.40;;;;;;5018561;28;19948;-73
2022/01/03 02:34:10;;;;;;;;;;;11.90;92.40;;;;;;5028625;28;19916;-73
2022/01/03 02:36:36;;;;;;;;;;;11.90;92.50;;;;;;5017799;28;19914;-73
2022/01/03 02:39:03;;;;;;;;;;;11.90;92.40;;;;;;5016482;28;19910;-73
2022/01/03 02:41:29;;;;;;;;;;;11.90;92.50;;;;;;5017710;28;19910;-73
2022/01/03 02:43:54;;;;;;;;;;;11.90;92.50;;;;;;5017863;28;19941;-73
2022/01/03 02:46:20;;;;;;;;;;;11.90;92.50;;;;;;5019854;28;19909;-73
2022/01/03 02:48:46;;;;;;;;;;;11.90;92.50;;;;;;5027994;28;19920;-73
2022/01/03 02:51:12;;;;;;;;;;;11.90;92.50;;;;;;5017587;28;19918;-73
2022/01/03 02:53:38;;;;;;;;;;;11.80;92.50;;;;;;5017904;28;20365;-73
2022/01/03 02:56:04;;;;;;;;;;;11.90;92.60;;;;;;5017254;28;19936;-73
2022/01/03 02:58:31;;;;;;;;;;;11.90;92.60;;;;;;5021802;28;19910;-73
2022/01/03 03:00:57;;;;;;;;;;;11.80;92.60;;;;;;5021438;28;20261;-73
2022/01/03 03:03:23;;;;;;;;;;;11.90;92.60;;;;;;5028818;28;19920;-73
2022/01/03 03:05:50;;;;;;;;;;;11.90;92.60;;;;;;5021335;28;19969;-72
2022/01/03 03:08:16;;;;;;;;;;;11.80;92.60;;;;;;5021398;28;19914;-73
2022/01/03 03:10:42;;;;;;;;;;;11.80;92.60;;;;;;5021153;28;19909;-73
2022/01/03 03:13:08;;;;;;;;;;;11.90;92.70;;;;;;5021534;28;19937;-73
2022/01/03 03:15:34;;;;;;;;;;;11.80;92.60;;;;;;5022985;28;19909;-73
2022/01/03 03:18:01;;;;;;;;;;;11.80;92.70;;;;;;5032238;28;19910;-73
2022/01/03 03:20:27;;;;;;;;;;;11.80;92.70;;;;;;5020811;28;19916;-73
2022/01/03 03:22:54;;;;;;;;;;;11.70;92.70;;;;;;5021285;28;19917;-73
2022/01/03 03:25:46;;;;;;;;;;;11.80;92.80;;;;;;5019305;28;19947;-72
2022/01/03 03:28:14;;;;;;;;;;;11.80;92.80;;;;;;5019930;28;19920;-73
2022/01/03 03:30:41;;;;;;;;;;;11.80;92.90;;;;;;5020827;28;19925;-73
2022/01/03 03:33:17;;;;;;;;;;;11.80;92.90;;;;;;5032645;28;19909;-72
2022/01/03 03:35:44;;;;;;;;;;;11.80;92.90;;;;;;5020873;28;19910;-73
2022/01/03 03:38:10;;;;;;;;;;;11.80;92.90;;;;;;5020697;28;20320;-73
2022/01/03 03:40:35;;;;;;;;;;;11.80;93.00;;;;;;5020773;28;19920;-73
2022/01/03 03:43:01;;;;;;;;;;;11.70;92.90;;;;;;5020790;28;19909;-73
2022/01/03 03:45:27;;;;;;;;;;;11.80;93.00;;;;;;5020899;28;19910;-73
2022/01/03 03:47:53;;;;;;;;;;;11.80;93.00;;;;;;5033155;28;19975;-73
2022/01/03 03:50:19;;;;;;;;;;;11.70;93.00;;;;;;5020548;28;19956;-73
2022/01/03 03:52:45;;;;;;;;;;;11.80;93.00;;;;;;5019072;28;19970;-73
2022/01/03 03:55:11;;;;;;;;;;;11.80;93.00;;;;;;5013524;28;19910;-73
2022/01/03 03:57:37;;;;;;;;;;;11.80;93.00;;;;;;5014310;28;20369;-73
2022/01/03 04:00:04;;;;;;;;;;;11.80;93.10;;;;;;5019135;28;19933;-73
2022/01/03 04:02:30;;;;;;;;;;;11.70;93.10;;;;;;5029249;28;19909;-73
2022/01/03 04:04:57;;;;;;;;;;;11.70;93.10;;;;;;5020208;28;19959;-73
2022/01/03 04:07:22;;;;;;;;;;;11.70;93.10;;;;;;5018761;28;19913;-73
2022/01/03 04:09:48;;;;;;;;;;;11.70;93.10;;;;;;5020296;28;20000;-73
2022/01/03 04:12:13;;;;;;;;;;;11.70;93.20;;;;;;5020236;28;19916;-72
2022/01/03 04:14:39;;;;;;;;;;;11.70;93.10;;;;;;5020179;28;20348;-73
2022/01/03 04:17:05;;;;;;;;;;;11.70;93.20;;;;;;5020020;28;19947;-73
2022/01/03 04:19:30;;;;;;;;;;;11.70;93.30;;;;;;5019995;28;20271;-73
2022/01/03 04:21:56;;;;;;;;;;;11.70;93.40;;;;;;5019990;28;20287;-73
2022/01/03 04:24:21;;;;;;;;;;;11.70;93.50;;;;;;5019683;28;20503;-73
2022/01/03 04:26:49;;;;;;;;;;;11.70;93.50;;;;;;5019903;28;20007;-74
2022/01/03 04:29:15;;;;;;;;;;;11.80;93.60;;;;;;5019843;28;19936;-73
2022/01/03 04:31:40;;;;;;;;;;;11.70;93.60;;;;;;5019730;28;19909;-73
2022/01/03 04:34:08;;;;;;;;;;;11.70;93.60;;;;;;5031219;28;19959;-73
2022/01/03 04:36:34;;;;;;;;;;;11.80;93.70;;;;;;5019795;28;19913;-74
2022/01/03 04:38:59;;;;;;;;;;;11.80;93.70;;;;;;5018306;28;19925;-74
2022/01/03 04:41:25;;;;;;;;;;;11.80;93.80;;;;;;5019853;28;19913;-73
2022/01/03 04:43:50;;;;;;;;;;;11.70;93.80;;;;;;5019620;28;19909;-73
2022/01/03 04:46:16;;;;;;;;;;;11.70;93.80;;;;;;5021013;28;19909;-73
2022/01/03 04:48:42;;;;;;;;;;;11.80;93.90;;;;;;5028879;28;20280;-73
2022/01/03 04:51:08;;;;;;;;;;;11.80;93.90;;;;;;5019524;28;19910;-73
2022/01/03 04:53:37;;;;;;;;;;;11.80;93.90;;;;;;5019436;28;20364;-73
2022/01/03 04:56:03;;;;;;;;;;;11.80;94.00;;;;;;5005925;28;19914;-73
2022/01/03 04:58:29;;;;;;;;;;;11.70;93.90;;;;;;5019450;28;19910;-73
2022/01/03 05:00:54;;;;;;;;;;;11.70;93.90;;;;;;5019175;28;20006;-73
2022/01/03 05:03:20;;;;;;;;;;;11.80;94.00;;;;;;5028046;28;19912;-73
2022/01/03 05:05:45;;;;;;;;;;;11.80;94.00;;;;;;5019026;28;19917;-73
2022/01/03 05:08:11;;;;;;;;;;;11.70;93.90;;;;;;5019174;28;19913;-73
2022/01/03 05:10:37;;;;;;;;;;;11.80;94.00;;;;;;5019037;28;19910;-73
2022/01/03 05:13:02;;;;;;;;;;;11.70;93.90;;;;;;5018937;28;19910;-73
2022/01/03 05:15:28;;;;;;;;;;;11.80;94.00;;;;;;5018856;28;19917;-73
2022/01/03 05:17:54;;;;;;;;;;;11.80;94.00;;;;;;5018510;28;20292;-73
2022/01/03 05:20:19;;;;;;;;;;;11.80;94.00;;;;;;5018636;28;19916;-73
2022/01/03 05:22:45;;;;;;;;;;;11.80;94.00;;;;;;5018940;28;19935;-73
2022/01/03 05:25:11;;;;;;;;;;;11.70;94.00;;;;;;5018388;28;19948;-73
2022/01/03 05:27:40;;;;;;;;;;;11.70;94.00;;;;;;5018892;28;19914;-73
2022/01/03 05:30:06;;;;;;;;;;;11.70;94.00;;;;;;5018591;28;20001;-73
2022/01/03 05:32:32;;;;;;;;;;;11.70;94.00;;;;;;5025699;28;19913;-73
2022/01/03 05:34:57;;;;;;;;;;;11.70;94.00;;;;;;5022632;28;19909;-73
2022/01/03 05:37:23;;;;;;;;;;;11.70;94.00;;;;;;5018704;28;19916;-73
2022/01/03 05:39:49;;;;;;;;;;;11.70;93.90;;;;;;5018362;28;19914;-73
2022/01/03 05:42:15;;;;;;;;;;;11.70;94.00;;;;;;5018686;28;19920;-72
2022/01/03 05:44:41;;;;;;;;;;;11.70;94.00;;;;;;5018426;28;19910;-73
2022/01/03 05:47:06;;;;;;;;;;;11.70;93.90;;;;;;5027074;28;19913;-73
2022/01/03 05:49:32;;;;;;;;;;;11.70;93.90;;;;;;5022358;28;19909;-73
2022/01/03 05:51:58;;;;;;;;;;;11.70;93.80;;;;;;5018549;28;19909;-72
2022/01/03 05:54:24;;;;;;;;;;;11.70;93.80;;;;;;5017429;28;19953;-72
2022/01/03 05:56:49;;;;;;;;;;;11.70;93.80;;;;;;5006007;28;19910;-73
2022/01/03 05:59:15;;;;;;;;;;;11.70;93.80;;;;;;5018488;28;19917;-73
2022/01/03 06:01:41;;;;;;;;;;;11.60;93.80;;;;;;5021290;28;19909;-73
2022/01/03 06:04:15;;;;;;;;;;;11.70;93.90;;;;;;5023666;28;20380;-72
2022/01/03 06:06:54;;;;;;;;;;;11.70;94.00;;;;;;5018241;28;19909;-74
2022/01/03 06:09:21;;;;;;;;;;;11.60;94.00;;;;;;5017998;28;20376;-76
2022/01/03 06:11:46;;;;;;;;;;;11.70;94.10;;;;;;5018418;28;19917;-78
2022/01/03 06:14:16;;;;;;;;;;;11.60;94.10;;;;;;5017864;28;19910;-77
2022/01/03 06:16:43;;;;;;;;;;;11.70;94.30;;;;;;5016802;28;19909;-80
2022/01/03 06:19:08;;;;;;;;;;;11.60;94.20;;;;;;5016310;28;19910;-77
2022/01/03 06:21:40;;;;;;;;;;;11.60;94.20;;;;;;5018110;28;19949;-77
2022/01/03 06:24:09;;;;;;;;;;;11.60;94.30;;;;;;5016454;28;20285;-84
2022/01/03 06:26:36;;;;;;;;;;;11.60;94.40;;;;;;5016397;28;20380;-80
2022/01/03 06:29:03;;;;;;;;;;;11.60;94.40;;;;;;5016751;28;20012;-80
2022/01/03 06:31:28;;;;;;;;;;;11.60;94.40;;;;;;5020613;28;19909;-79
2022/01/03 06:33:54;;;;;;;;;;;11.60;94.40;;;;;;5032042;28;20272;-79
2022/01/03 06:36:19;;;;;;;;;;;11.60;94.50;;;;;;5021862;28;19916;-76
2022/01/03 06:38:45;;;;;;;;;;;11.60;94.50;;;;;;5021808;28;19917;-77
2022/01/03 06:41:11;;;;;;;;;;;11.60;94.50;;;;;;5021960;28;19916;-82
2022/01/03 06:43:36;;;;;;;;;;;11.60;94.50;;;;;;5021601;28;19915;-76
2022/01/03 06:46:02;;;;;;;;;;;11.60;94.60;;;;;;5021746;28;19913;-77
2022/01/03 06:48:28;;;;;;;;;;;11.60;94.60;;;;;;5034444;28;19914;-80
2022/01/03 06:50:54;;;;;;;;;;;11.60;94.70;;;;;;5021692;28;19909;-82
2022/01/03 06:53:19;;;;;;;;;;;11.50;94.70;;;;;;5020509;28;19909;-78
2022/01/03 06:55:45;;;;;;;;;;;11.60;94.70;;;;;;5009514;28;20372;-78
2022/01/03 06:58:11;;;;;;;;;;;11.60;94.80;;;;;;5019917;28;19917;-79
2022/01/03 07:00:36;;;;;;;;;;;11.60;94.80;;;;;;5021658;28;19914;-78
2022/01/03 07:03:02;;;;;;;;;;;11.50;94.90;;;;;;5029750;28;20327;-78
2022/01/03 07:05:28;;;;;;;;;;;11.60;94.80;;;;;;5021665;28;19913;-78
2022/01/03 07:07:53;;;;;;;;;;;11.60;94.80;;;;;;5021152;28;20012;-78
2022/01/03 07:10:19;;;;;;;;;;;11.60;95.00;;;;;;5020208;28;19956;-78
2022/01/03 07:12:47;;;;;;;;;;;11.60;95.00;;;;;;5020972;28;20295;-79
2022/01/03 07:20:41;;;;;;;;;;;11.60;95.10;;;;;;5019602;28;19916;-77
2022/01/03 07:23:07;;;;;;;;;;;11.50;95.20;;;;;;5020246;28;19910;-77
2022/01/03 07:25:32;;;;;;;;;;;11.60;95.20;;;;;;5020012;28;20368;-77
2022/01/03 07:27:58;;;;;;;;;;;11.60;95.30;;;;;;5020653;28;19921;-77
2022/01/03 07:30:24;;;;;;;;;;;11.50;95.20;;;;;;5019765;28;19913;-76
2022/01/03 07:32:50;;;;;;;;;;;11.50;95.30;;;;;;5029601;28;19909;-76
2022/01/03 07:35:16;;;;;;;;;;;11.60;95.40;;;;;;5026949;28;19945;-76
2022/01/03 07:37:42;;;;;;;;;;;11.60;95.40;;;;;;5029240;28;20364;-77
2022/01/03 07:40:08;;;;;;;;;;;11.60;95.40;;;;;;5018722;28;19933;-76
2022/01/03 07:42:33;;;;;;;;;;;11.50;95.40;;;;;;5019207;28;19909;-75
2022/01/03 07:44:59;;;;;;;;;;;11.60;95.80;;;;;;5020469;28;19909;-76
2022/01/03 07:47:25;;;;;;;;;;;11.60;95.70;;;;;;5029871;28;19917;-77
2022/01/03 07:49:50;;;;;;;;;;;11.60;95.60;;;;;;5021331;28;20364;-76
2022/01/03 07:52:16;;;;;;;;;;;11.60;95.60;;;;;;5018822;28;20068;-77
2022/01/03 07:54:42;;;;;;;;;;;11.60;95.60;;;;;;5015513;28;19910;-76
2022/01/03 07:57:07;;;;;;;;;;;11.60;95.70;;;;;;5010080;28;19917;-76
2022/01/03 07:59:33;;;;;;;;;;;11.60;95.70;;;;;;5019591;28;19909;-76
2022/01/03 08:01:59;;;;;;;;;;;11.60;95.70;;;;;;5024980;28;19913;-76
2022/01/03 08:04:25;;;;;;;;;;;11.60;95.70;;;;;;5023021;28;19914;-76
2022/01/03 08:06:51;;;;;;;;;;;11.60;95.70;;;;;;5020259;28;19910;-76
2022/01/03 08:09:17;;;;;;;;;;;11.60;95.70;;;;;;5019468;28;20254;-76
2022/01/03 08:11:42;;;;;;;;;;;11.60;95.70;;;;;;5019856;28;19949;-75
2022/01/03 08:14:08;;;;;;;;;;;11.60;95.80;;;;;;5019554;28;19917;-75
2022/01/03 08:16:34;;;;;;;;;;;11.70;96.00;;;;;;5019836;28;19916;-75
2022/01/03 08:18:59;;;;;;;;;;;11.70;96.10;;;;;;5032322;28;19910;-76
2022/01/03 08:21:25;;;;;;;;;;;11.70;96.10;;;;;;5019606;28;19924;-76
2022/01/03 08:23:51;;;;;;;;;;;11.70;96.10;;;;;;5018984;28;19949;-77
2022/01/03 08:26:17;;;;;;;;;;;11.70;95.90;;;;;;5019670;28;19909;-76
2022/01/03 08:28:42;;;;;;;;;;;11.70;95.90;;;;;;5018758;28;19929;-76
2022/01/03 08:31:08;;;;;;;;;;;11.70;95.90;;;;;;5019165;28;19937;-76
2022/01/03 08:33:34;;;;;;;;;;;11.80;96.00;;;;;;5030077;28;19910;-77
2022/01/03 08:36:00;;;;;;;;;;;11.80;95.90;;;;;;5019314;28;19913;-76
2022/01/03 08:38:25;;;;;;;;;;;11.80;95.80;;;;;;5018915;28;19956;-76
2022/01/03 08:40:51;;;;;;;;;;;11.80;95.90;;;;;;5019031;28;19913;-76
2022/01/03 08:43:17;;;;;;;;;;;11.80;95.80;;;;;;5018814;28;20560;-76
2022/01/03 08:45:43;;;;;;;;;;;11.90;95.90;;;;;;5019130;28;19909;-76
2022/01/03 08:48:08;;;;;;;;;;;11.90;95.80;;;;;;5030859;28;19989;-76
2022/01/03 08:50:34;;;;;;;;;;;11.90;95.90;;;;;;5018936;28;19917;-77
2022/01/03 08:53:01;;;;;;;;;;;11.90;95.80;;;;;;5018007;28;20257;-77
2022/01/03 08:55:26;;;;;;;;;;;12.00;95.90;;;;;;5014453;28;19949;-76
2022/01/03 08:57:52;;;;;;;;;;;12.00;95.90;;;;;;5014661;28;20391;-76
2022/01/03 09:00:19;;;;;;;;;;;12.00;95.80;;;;;;5018858;28;20451;-76
2022/01/03 09:02:45;;;;;;;;;;;12.00;95.70;;;;;;5027295;28;19917;-77
2022/01/03 09:05:10;;;;;;;;;;;12.10;95.70;;;;;;5018894;28;19917;-76
2022/01/03 09:07:36;;;;;;;;;;;12.10;95.70;;;;;;5018751;28;19914;-77
2022/01/03 09:10:03;;;;;;;;;;;12.10;95.70;;;;;;5018559;28;20009;-76
2022/01/03 09:12:29;;;;;;;;;;;12.10;95.60;;;;;;5018450;28;20004;-76
2022/01/03 09:14:55;;;;;;;;;;;12.20;95.70;;;;;;5018344;28;19960;-76
2022/01/03 09:17:20;;;;;;;;;;;12.20;95.60;;;;;;5018573;28;19914;-76
2022/01/03 09:19:46;;;;;;;;;;;12.30;95.50;;;;;;5018348;28;19910;-76
2022/01/03 09:22:16;;;;;;;;;;;12.30;95.40;;;;;;5017433;28;20377;-76
2022/01/03 09:24:47;;;;;;;;;;;12.30;95.30;;;;;;5018120;28;20396;-76
2022/01/03 09:29:58;;;;;;;;;;;12.40;95.20;;;;;;5018351;28;20316;-77
2022/01/03 09:32:23;;;;;;;;;;;12.40;95.20;;;;;;5024418;28;19909;-77
2022/01/03 09:34:49;;;;;;;;;;;12.40;95.10;;;;;;5024100;28;19909;-76
2022/01/03 09:37:19;;;;;;;;;;;12.40;95.10;;;;;;5017179;28;19917;-76
2022/01/03 09:39:46;;;;;;;;;;;12.50;95.00;;;;;;5018468;28;20025;-76
2022/01/03 09:42:13;;;;;;;;;;;12.50;95.30;;;;;;5018496;28;19909;-76
2022/01/03 09:44:41;;;;;;;;;;;12.40;94.90;;;;;;5018367;28;19910;-76
2022/01/03 09:47:09;;;;;;;;;;;12.50;94.90;;;;;;5026702;28;19909;-76
2022/01/03 09:49:36;;;;;;;;;;;12.50;94.90;;;;;;5022096;28;20009;-76
2022/01/03 09:52:06;;;;;;;;;;;12.60;94.80;;;;;;5018330;28;19910;-76
2022/01/03 09:54:32;;;;;;;;;;;12.60;94.80;;;;;;5014861;28;19936;-77
2022/01/03 09:56:59;;;;;;;;;;;12.60;94.80;;;;;;5006598;28;19960;-77
2022/01/03 09:59:26;;;;;;;;;;;12.60;94.70;;;;;;5030689;28;20376;-76
2022/01/03 10:01:53;;;;;;;;;;;12.60;94.70;;;;;;5022096;28;19916;-76
2022/01/03 10:04:19;;;;;;;;;;;12.70;94.70;;;;;;5021151;28;19914;-76
2022/01/03 10:06:45;;;;;;;;;;;12.70;94.60;;;;;;5017657;28;19917;-76
2022/01/03 10:09:11;;;;;;;;;;;12.70;94.80;;;;;;5017741;28;19953;-77
2022/01/03 10:11:37;;;;;;;;;;;12.80;94.60;;;;;;5017804;28;19909;-76
2022/01/03 10:14:03;;;;;;;;;;;12.80;94.50;;;;;;5016430;28;20012;-76
2022/01/03 10:16:29;;;;;;;;;;;12.80;94.50;;;;;;5017452;28;19945;-76
2022/01/03 10:18:55;;;;;;;;;;;12.90;94.50;;;;;;5016857;28;20578;-76
2022/01/03 10:21:34;;;;;;;;;;;12.90;94.30;;;;;;5017806;28;19917;-76
2022/01/03 10:24:00;;;;;;;;;;;13.00;94.30;;;;;;5016979;28;20459;-77
2022/01/03 10:26:26;;;;;;;;;;;13.10;94.20;;;;;;5017292;28;19914;-76
2022/01/03 10:29:09;;;;;;;;;;;13.10;94.00;;;;;;5017173;28;19913;-76
2022/01/03 10:31:37;;;;;;;;;;;13.20;93.80;;;;;;5017438;28;19910;-76
2022/01/03 10:34:07;;;;;;;;;;;13.20;93.50;;;;;;5029122;28;19917;-76
2022/01/03 10:36:34;;;;;;;;;;;13.20;93.40;;;;;;5016778;28;19916;-76
2022/01/03 10:39:10;;;;;;;;;;;13.20;93.40;;;;;;5017641;28;19910;-76
2022/01/03 10:41:36;;;;;;;;;;;13.20;93.30;;;;;;5017506;28;20375;-76
2022/01/03 10:44:02;;;;;;;;;;;13.20;93.40;;;;;;5017613;28;19909;-74
2022/01/03 10:46:29;;;;;;;;;;;13.20;93.50;;;;;;5017805;28;19909;-75
2022/01/03 10:49:05;;;;;;;;;;;13.20;93.60;;;;;;5016726;28;19966;-75
2022/01/03 10:51:31;;;;;;;;;;;13.20;93.90;;;;;;5017392;28;20288;-73
2022/01/03 10:53:57;;;;;;;;;;;13.20;93.60;;;;;;5017212;28;19909;-76
2022/01/03 10:56:24;;;;;;;;;;;13.20;93.80;;;;;;5004429;28;19910;-77
2022/01/03 10:58:53;;;;;;;;;;;13.20;93.90;;;;;;5017434;28;19913;-76
2022/01/03 11:01:20;;;;;;;;;;;13.20;93.90;;;;;;5016867;28;19910;-76
2022/01/03 11:03:47;;;;;;;;;;;13.20;93.90;;;;;;5024782;28;20291;-77
2022/01/03 11:06:25;;;;;;;;;;;13.20;94.00;;;;;;5016597;28;19910;-76
2022/01/03 11:11:40;;;;;;;;;;;13.20;94.10;;;;;;5007130;28;19932;-76
2022/01/03 11:14:07;;;;;;;;;;;13.20;94.30;;;;;;5017055;28;20276;-76
2022/01/03 11:16:34;;;;;;;;;;;13.20;94.40;;;;;;5019405;28;19910;-77
2022/01/03 11:19:00;;;;;;;;;;;13.20;94.40;;;;;;5020295;28;19971;-76
2022/01/03 11:21:26;;;;;;;;;;;13.20;94.50;;;;;;5019498;28;19956;-77
2022/01/03 11:24:11;;;;;;;;;;;13.20;94.60;;;;;;5020534;28;20000;-76
2022/01/03 11:26:46;;;;;;;;;;;13.20;94.60;;;;;;5019028;28;19944;-77
2022/01/03 11:29:12;;;;;;;;;;;13.20;94.60;;;;;;5019627;28;19920;-76
2022/01/03 11:31:39;;;;;;;;;;;13.30;94.70;;;;;;5019872;28;19910;-76
2022/01/03 11:34:06;;;;;;;;;;;13.30;94.70;;;;;;5020405;28;19935;-76
2022/01/03 11:36:33;;;;;;;;;;;13.30;94.80;;;;;;5020466;28;19917;-76
2022/01/03 11:39:09;;;;;;;;;;;13.40;94.80;;;;;;5018587;28;19914;-76
2022/01/03 11:41:36;;;;;;;;;;;13.40;94.80;;;;;;5020337;28;19917;-76
2022/01/03 11:44:02;;;;;;;;;;;13.40;94.90;;;;;;5020168;28;19916;-76
2022/01/03 11:46:28;;;;;;;;;;;13.50;94.80;;;;;;5023234;28;19987;-76
2022/01/03 11:48:54;;;;;;;;;;;13.50;94.80;;;;;;5029008;28;19917;-76
2022/01/03 11:51:20;;;;;;;;;;;13.50;94.80;;;;;;5019807;28;19910;-76
2022/01/03 11:53:47;;;;;;;;;;;13.50;94.70;;;;;;5020034;28;19913;-76
2022/01/03 11:56:16;;;;;;;;;;;13.50;94.60;;;;;;5007109;28;19910;-76
2022/01/03 11:58:51;;;;;;;;;;;13.40;94.60;;;;;;5019965;28;19913;-77
2022/01/03 12:04:10;;;;;;;;;;;13.40;94.70;;;;;;5008569;28;19916;-75
2022/01/03 12:06:36;;;;;;;;;;;13.40;94.80;;;;;;5018801;28;19914;-77
2022/01/03 12:09:09;;;;;;;;;;;13.40;94.90;;;;;;5018391;28;19920;-80
2022/01/03 12:11:41;;;;;;;;;;;13.40;94.90;;;;;;5018764;28;19910;-77
2022/01/03 12:14:10;;;;;;;;;;;13.40;94.80;;;;;;5018779;28;19910;-76
2022/01/03 12:16:39;;;;;;;;;;;13.40;94.80;;;;;;5019537;28;19966;-74
2022/01/03 12:19:10;;;;;;;;;;;13.40;94.70;;;;;;5019372;28;19910;-80
2022/01/03 12:21:49;;;;;;;;;;;13.30;94.60;;;;;;5018951;28;19913;-81
2022/01/03 12:24:27;;;;;;;;;;;13.30;94.60;;;;;;5005708;28;19926;-78
2022/01/03 12:27:14;;;;;;;;;;;13.30;94.60;;;;;;5013163;28;19915;-79
2022/01/03 12:29:58;;;;;;;;;;;13.30;94.50;;;;;;5019878;28;19913;-78
2022/01/03 12:32:25;;;;;;;;;;;13.30;94.50;;;;;;5022874;28;19909;-78
2022/01/03 12:35:06;;;;;;;;;;;13.20;94.50;;;;;;5025404;28;20352;-78
2022/01/03 12:37:33;;;;;;;;;;;13.20;94.60;;;;;;5018642;28;19910;-78
2022/01/03 12:40:01;;;;;;;;;;;13.20;94.70;;;;;;5018378;28;19925;-78
2022/01/03 12:42:48;;;;;;;;;;;13.10;94.70;;;;;;5019613;28;20000;-78
2022/01/03 12:45:15;;;;;;;;;;;13.10;94.70;;;;;;5019567;28;20000;-78
2022/01/03 12:47:41;;;;;;;;;;;13.10;94.80;;;;;;5017778;28;19913;-78
2022/01/03 12:50:22;;;;;;;;;;;13.10;94.90;;;;;;5018793;28;19917;-77
2022/01/03 12:52:48;;;;;;;;;;;13.00;94.90;;;;;;5032421;28;19909;-78
2022/01/03 12:55:35;;;;;;;;;;;13.00;95.10;;;;;;5010604;28;20444;-77
2022/01/03 12:58:00;;;;;;;;;;;13.00;95.30;;;;;;5015898;28;20277;-77
2022/01/03 13:00:39;;;;;;;;;;;13.00;95.40;;;;;;5019601;28;19916;-77
2022/01/03 13:03:23;;;;;;;;;;;13.00;95.40;;;;;;5027499;28;19909;-77
2022/01/03 13:06:07;;;;;;;;;;;13.00;95.40;;;;;;5018659;28;19910;-76
2022/01/03 13:08:34;;;;;;;;;;;13.00;95.40;;;;;;5018800;28;19917;-76
2022/01/03 13:11:08;;;;;;;;;;;13.00;95.60;;;;;;5018446;28;19910;-76
2022/01/03 13:13:37;;;;;;;;;;;13.00;95.60;;;;;;5018794;28;19933;-77
2022/01/03 13:16:17;;;;;;;;;;;13.10;95.90;;;;;;5018559;28;20391;-77
2022/01/03 13:18:46;;;;;;;;;;;13.10;95.90;;;;;;5018214;28;19909;-77
2022/01/03 13:21:16;;;;;;;;;;;13.10;95.90;;;;;;5018588;28;19910;-77
2022/01/03 13:23:51;;;;;;;;;;;13.10;96.00;;;;;;5018087;28;19918;-77
2022/01/03 13:26:17;;;;;;;;;;;13.20;96.20;;;;;;5018588;28;19936;-76
2022/01/03 13:28:49;;;;;;;;;;;13.20;96.10;;;;;;5018532;28;20380;-76
2022/01/03 13:31:15;;;;;;;;;;;13.30;96.30;;;;;;5018596;28;19917;-76
2022/01/03 13:33:41;;;;;;;;;;;13.30;96.20;;;;;;5029593;28;19913;-76
2022/01/03 13:36:07;;;;;;;;;;;13.40;96.30;;;;;;5017028;28;19909;-76
2022/01/03 13:38:33;;;;;;;;;;;13.40;96.30;;;;;;5016765;28;19916;-76
2022/01/03 13:41:16;;;;;;;;;;;13.30;96.10;;;;;;5017948;28;19933;-76
2022/01/03 13:43:48;;;;;;;;;;;13.30;96.00;;;;;;5005325;28;19960;-76
2022/01/03 13:49:12;;;;;;;;;;;13.30;96.20;;;;;;5028500;28;19921;-76
2022/01/03 13:51:43;;;;;;;;;;;13.20;96.20;;;;;;5019082;28;19920;-76
2022/01/03 13:54:08;;;;;;;;;;;13.20;96.20;;;;;;5017843;28;19964;-76
2022/01/03 13:56:41;;;;;;;;;;;13.20;96.30;;;;;;5002898;28;19910;-75
2022/01/03 13:59:07;;;;;;;;;;;13.10;96.30;;;;;;5018077;28;19913;-75
2022/01/03 14:01:32;;;;;;;;;;;13.20;96.30;;;;;;5018631;28;19917;-75
2022/01/03 14:03:58;;;;;;;;;;;13.20;96.50;;;;;;5024696;28;19910;-75
2022/01/03 14:06:24;;;;;;;;;;;13.10;96.50;;;;;;5018098;28;19963;-76
2022/01/03 14:08:51;;;;;;;;;;;13.10;96.50;;;;;;5016703;28;19914;-76
2022/01/03 14:11:23;;;;;;;;;;;13.20;96.80;;;;;;5018111;28;19909;-76
2022/01/03 14:13:50;;;;;;;;;;;13.10;96.60;;;;;;5018010;28;19965;-75
2022/01/03 14:16:16;;;;;;;;;;;13.20;96.70;;;;;;5018086;28;19910;-76
2022/01/03 14:18:42;;;;;;;;;;;13.20;96.80;;;;;;5017784;28;19916;-76
2022/01/03 14:21:15;;;;;;;;;;;13.20;96.90;;;;;;5016804;28;20008;-76
2022/01/03 14:23:45;;;;;;;;;;;13.20;96.90;;;;;;5017693;28;19918;-76
2022/01/03 14:26:12;;;;;;;;;;;13.20;96.90;;;;;;5016750;28;19917;-76
2022/01/03 14:28:38;;;;;;;;;;;13.20;96.90;;;;;;5017818;28;19955;-76
2022/01/03 14:31:04;;;;;;;;;;;13.30;97.30;;;;;;5017847;28;19940;-76
2022/01/03 14:33:30;;;;;;;;;;;13.30;97.30;;;;;;5029272;28;20299;-76
2022/01/03 14:35:55;;;;;;;;;;;13.20;97.30;;;;;;5017728;28;20000;-76
2022/01/03 14:38:24;;;;;;;;;;;13.30;97.30;;;;;;5017846;28;19910;-76